Time;durP1;ratioP1;P1;durP2;ratioP2;P2;SDS_P1;SDS_P2;PMS_P1;PMS_P2;Temp;Humidity;BMP_temperature;BMP_pressure;BME280_temperature;BME280_humidity;BME280_pressure;Samples;Min_cycle;Max_cycle;Signal;HPM_P1;HPM_P2
2022/02/07 00:01:59;;;;;;;14.18;9.00;;;;;;;-1.14;100.00;100723.91;1752575;80;21935;-78
2022/02/07 00:04:26;;;;;;;11.95;7.50;;;;;;;-1.20;100.00;100719.78;1751971;81;21050;-79
2022/02/07 00:06:50;;;;;;;12.85;7.87;;;;;;;-1.24;100.00;100712.25;1732418;81;21966;-78
2022/02/07 00:09:17;;;;;;;14.38;8.20;;;;;;;-1.29;100.00;100710.63;1755228;81;21128;-78
2022/02/07 00:11:44;;;;;;;13.13;8.10;;;;;;;-1.32;100.00;100699.65;1755436;80;21634;-78
2022/02/07 00:14:12;;;;;;;13.48;8.33;;;;;;;-1.36;100.00;100695.50;1736123;81;21745;-79
2022/02/07 00:16:42;;;;;;;12.73;8.65;;;;;;;-1.38;100.00;100689.13;1755377;81;21661;-79
2022/02/07 00:19:12;;;;;;;14.30;8.48;;;;;;;-1.38;100.00;100685.30;1755456;81;21050;-77
2022/02/07 00:21:38;;;;;;;14.23;9.38;;;;;;;-1.36;100.00;100684.01;1731925;81;21035;-80
2022/02/07 00:24:05;;;;;;;14.78;9.65;;;;;;;-1.36;100.00;100674.61;1711931;81;21071;-79
2022/02/07 00:26:33;;;;;;;14.15;8.98;;;;;;;-1.36;100.00;100664.39;1755171;81;21110;-77
2022/02/07 00:29:00;;;;;;;13.43;9.03;;;;;;;-1.35;100.00;100666.50;1755446;81;21045;-79
2022/02/07 00:31:27;;;;;;;12.23;8.65;;;;;;;-1.33;100.00;100656.66;1755071;81;21484;-78
2022/02/07 00:33:54;;;;;;;13.30;8.63;;;;;;;-1.31;100.00;100658.72;1755579;80;21464;-77
2022/02/07 00:36:21;;;;;;;12.35;8.88;;;;;;;-1.30;100.00;100656.57;1755323;80;20970;-79
2022/02/07 00:38:54;;;;;;;11.85;7.67;;;;;;;-1.28;100.00;100648.44;1755237;81;21500;-79
2022/02/07 00:41:21;;;;;;;14.60;8.35;;;;;;;-1.25;100.00;100639.84;1752694;81;21006;-78
2022/02/07 00:43:53;;;;;;;13.10;8.95;;;;;;;-1.21;100.00;100638.05;1752550;81;21066;-82
2022/02/07 00:46:22;;;;;;;12.37;8.55;;;;;;;-1.17;100.00;100635.83;1736374;80;21177;-79
2022/02/07 00:48:44;;;;;;;17.87;9.75;;;;;;;-1.15;100.00;100628.94;1734350;81;21079;-78
2022/02/07 00:51:11;;;;;;;15.95;9.75;;;;;;;-1.12;100.00;100623.76;1717968;82;21849;-77
2022/02/07 00:53:38;;;;;;;13.75;9.98;;;;;;;-1.09;100.00;100624.97;1736750;81;21595;-79
2022/02/07 00:56:06;;;;;;;13.62;9.48;;;;;;;-1.07;100.00;100615.52;1717941;82;21004;-77
2022/02/07 00:58:35;;;;;;;16.07;10.65;;;;;;;-1.05;100.00;100613.77;1733717;81;21032;-79
2022/02/07 01:01:03;;;;;;;15.88;10.85;;;;;;;-1.01;100.00;100612.82;1737090;81;21020;-79
2022/02/07 01:03:32;;;;;;;17.12;11.18;;;;;;;-0.97;100.00;100609.74;1734566;81;21736;-78
2022/02/07 01:06:01;;;;;;;17.65;11.15;;;;;;;-0.94;100.00;100610.09;1737224;81;21091;-82
2022/02/07 01:08:38;;;;;;;15.28;10.82;;;;;;;-0.91;100.00;100602.32;1737677;81;21090;-81
2022/02/07 01:11:22;;;;;;;16.32;11.30;;;;;;;-0.89;100.00;100599.29;1714741;82;21008;-78
2022/02/07 01:54:35;;;;;;;16.37;11.00;;;;;;;-0.43;100.00;100556.20;1746052;82;21602;-78
2022/02/07 01:56:56;;;;;;;18.62;11.53;;;;;;;-0.42;100.00;100546.38;1747232;81;21179;-79
2022/02/07 01:59:24;;;;;;;21.02;12.25;;;;;;;-0.39;100.00;100547.11;1746799;81;21069;-80
2022/02/07 02:01:52;;;;;;;14.28;10.32;;;;;;;-0.35;100.00;100540.17;1728335;83;21104;-79
2022/02/07 02:04:19;;;;;;;17.75;11.97;;;;;;;-0.33;100.00;100538.41;1723590;83;21139;-78
2022/02/07 02:06:48;;;;;;;14.47;10.10;;;;;;;-0.32;100.00;100531.96;1725237;83;21045;-79
2022/02/07 02:09:28;;;;;;;16.17;11.25;;;;;;;-0.29;100.00;100541.72;1755162;81;21166;-77
2022/02/07 02:11:56;;;;;;;15.53;11.25;;;;;;;-0.27;100.00;100533.09;1755478;81;21120;-79
2022/02/07 02:14:37;;;;;;;19.42;11.97;;;;;;;-0.26;100.00;100527.09;1725694;81;21092;-78
2022/02/07 02:46:58;;;;;;;16.87;10.82;;;;;;;-0.28;100.00;100474.30;1751681;81;21041;-79
2022/02/07 02:49:33;;;;;;;20.02;10.70;;;;;;;-0.28;100.00;100475.13;1738383;82;21033;-79
2022/02/07 02:51:56;;;;;;;21.73;11.50;;;;;;;-0.27;100.00;100472.96;1734226;82;21049;-79
2022/02/07 02:54:23;;;;;;;18.37;11.97;;;;;;;-0.27;100.00;100466.56;1738518;82;21044;-79
2022/02/07 02:56:51;;;;;;;17.82;11.33;;;;;;;-0.26;100.00;100463.12;1721727;81;21046;-78
2022/02/07 02:59:19;;;;;;;16.35;11.00;;;;;;;-0.26;100.00;100463.12;1752461;81;21054;-78
2022/02/07 03:01:46;;;;;;;18.42;12.18;;;;;;;-0.26;100.00;100460.98;1752931;81;21895;-79
2022/02/07 03:04:14;;;;;;;19.30;12.60;;;;;;;-0.26;100.00;100450.75;1753131;81;21057;-78
2022/02/07 03:06:42;;;;;;;21.93;12.33;;;;;;;-0.27;100.00;100452.91;1752940;81;21026;-78
2022/02/07 03:09:13;;;;;;;22.40;13.93;;;;;;;-0.26;100.00;100460.56;1733484;81;21066;-79
2022/02/07 03:11:38;;;;;;;26.85;14.85;;;;;;;-0.27;100.00;100451.63;1719326;82;21973;-79
2022/02/07 03:14:06;;;;;;;26.93;15.70;;;;;;;-0.26;100.00;100447.77;1722840;82;22371;-78
2022/02/07 03:16:38;;;;;;;27.25;16.30;;;;;;;-0.25;100.00;100442.19;1721922;81;21100;-79
2022/02/07 03:19:11;;;;;;;27.45;17.50;;;;;;;-0.24;100.00;100441.30;1692627;82;21527;-78
2022/02/07 03:21:41;;;;;;;28.35;17.37;;;;;;;-0.26;100.00;100434.97;1689824;81;21530;-79
2022/02/07 03:24:09;;;;;;;32.60;19.73;;;;;;;-0.26;100.00;100430.27;1740808;82;21567;-78
2022/02/07 03:26:43;;;;;;;33.83;20.02;;;;;;;-0.26;100.00;100431.55;1722559;81;21195;-80
2022/02/07 03:29:14;;;;;;;30.90;20.45;;;;;;;-0.27;100.00;100424.76;1727321;80;21069;-79
2022/02/07 03:31:43;;;;;;;35.43;19.80;;;;;;;-0.27;100.00;100426.89;1730260;82;21063;-78
2022/02/07 03:34:11;;;;;;;28.90;18.55;;;;;;;-0.26;100.00;100431.55;1706722;81;21070;-78
2022/02/07 03:36:42;;;;;;;37.80;20.15;;;;;;;-0.23;100.00;100436.13;1706380;82;21421;-77
2022/02/07 03:39:10;;;;;;;33.28;18.77;;;;;;;-0.19;100.00;100430.03;1731193;82;21808;-78
2022/02/07 03:41:38;;;;;;;34.23;18.85;;;;;;;-0.17;100.00;100428.70;1735693;82;21060;-77
2022/02/07 03:44:06;;;;;;;32.28;18.90;;;;;;;-0.15;100.00;100425.65;1735467;82;21508;-79
2022/02/07 03:46:33;;;;;;;34.53;20.05;;;;;;;-0.14;100.00;100431.16;1710095;82;21843;-78
2022/02/07 03:49:01;;;;;;;36.33;20.50;;;;;;;-0.12;100.00;100422.97;1731904;82;21022;-78
2022/02/07 03:51:30;;;;;;;31.25;19.23;;;;;;;-0.11;100.00;100432.32;1735803;81;21169;-79
2022/02/07 03:53:57;;;;;;;32.98;20.62;;;;;;;-0.10;100.00;100420.37;1750141;81;21015;-77
2022/02/07 03:56:25;;;;;;;37.65;20.80;;;;;;;-0.10;100.00;100425.04;1740699;81;21511;-79
2022/02/07 03:58:52;;;;;;;29.10;19.40;;;;;;;-0.09;100.00;100422.05;1731864;82;21565;-79
2022/02/07 04:01:23;;;;;;;37.00;19.27;;;;;;;-0.10;100.00;100424.22;1725432;81;21226;-77
2022/02/07 04:03:50;;;;;;;31.17;19.42;;;;;;;-0.10;100.00;100425.50;1755041;81;21958;-78
2022/02/07 04:06:21;;;;;;;32.98;20.00;;;;;;;-0.11;100.00;100415.69;1682576;81;21539;-77
2022/02/07 04:08:58;;;;;;;26.82;17.77;;;;;;;-0.10;100.00;100418.64;1735978;81;21029;-80
2022/02/07 04:11:34;;;;;;;31.77;19.40;;;;;;;-0.09;100.00;100415.66;1733255;81;21022;-80
2022/02/07 04:13:58;;;;;;;30.02;18.48;;;;;;;-0.07;100.00;100418.97;1709900;82;21078;-80
2022/02/07 04:16:28;;;;;;;29.40;17.02;;;;;;;-0.05;100.00;100416.78;1746411;81;21952;-77
2022/02/07 04:19:05;;;;;;;31.93;18.35;;;;;;;-0.03;100.00;100411.14;1739467;82;21027;-81
2022/02/07 04:21:31;;;;;;;33.80;18.70;;;;;;;0.01;100.00;100404.64;1752811;81;21144;-81
2022/02/07 04:23:59;;;;;;;34.18;16.67;;;;;;;0.13;100.00;100408.05;1767866;81;21274;-78
2022/02/07 04:26:30;;;;;;;34.43;17.82;;;;;;;0.27;100.00;100405.00;1766511;81;21290;-80
2022/02/07 04:28:58;;;;;;;24.57;15.85;;;;;;;0.44;100.00;100398.84;1767567;81;21150;-80
2022/02/07 04:31:26;;;;;;;29.60;16.90;;;;;;;0.48;100.00;100394.44;1767860;81;21061;-79
2022/02/07 04:33:53;;;;;;;26.62;17.05;;;;;;;0.41;100.00;100387.41;1767634;81;21091;-79
2022/02/07 04:36:20;;;;;;;28.00;16.73;;;;;;;0.37;100.00;100386.29;1737524;81;21074;-79
2022/02/07 04:38:47;;;;;;;31.68;17.37;;;;;;;0.34;100.00;100376.17;1767699;81;21077;-78
2022/02/07 04:41:15;;;;;;;32.48;18.73;;;;;;;0.30;100.00;100374.99;1767803;81;21550;-80
2022/02/07 04:43:51;;;;;;;26.40;16.45;;;;;;;0.54;100.00;100368.58;1767203;81;21623;-79
2022/02/07 04:50:04;;;;;;;25.95;16.10;;;;;;;0.55;100.00;100368.97;1758168;81;22256;-78
2022/02/07 04:51:48;;;;;;;23.30;15.68;;;;;;;0.39;100.00;100366.58;1735757;81;21065;-77
2022/02/07 04:54:29;;;;;;;26.10;15.78;;;;;;;0.27;100.00;100366.16;1755460;81;21583;-77
2022/02/07 04:59:48;;;;;;;21.52;14.68;;;;;;;0.12;100.00;100370.09;1757406;80;21321;-77
2022/02/07 05:02:08;;;;;;;26.37;15.38;;;;;;;0.08;100.00;100381.78;1728827;80;21636;-77
2022/02/07 05:04:37;;;;;;;22.07;14.78;;;;;;;0.07;100.00;100382.23;1730718;80;21610;-78
2022/02/07 05:15:15;;;;;;;26.48;15.53;;;;;;;0.05;100.00;100373.77;1749533;80;21065;-77
2022/02/07 05:17:43;;;;;;;22.73;14.13;;;;;;;0.04;100.00;100371.27;1732694;81;21569;-77
2022/02/07 05:20:15;;;;;;;21.95;13.48;;;;;;;0.04;100.00;100367.42;1729092;81;22019;-77
2022/02/07 05:22:47;;;;;;;19.73;13.53;;;;;;;0.06;100.00;100360.50;1754656;81;21522;-78
2022/02/07 05:25:15;;;;;;;20.02;13.65;;;;;;;0.06;100.00;100364.34;1754421;80;21027;-78
2022/02/07 05:28:02;;;;;;;24.63;14.33;;;;;;;0.06;100.00;100359.22;1732305;82;21085;-77
2022/02/07 05:30:41;;;;;;;19.77;12.93;;;;;;;0.08;100.00;100352.33;1731748;82;21120;-79
2022/02/07 05:33:13;;;;;;;21.80;13.00;;;;;;;0.09;100.00;100343.77;1708674;81;21671;-78
2022/02/07 05:35:41;;;;;;;21.10;13.20;;;;;;;0.12;100.00;100338.09;1755637;80;21045;-79
2022/02/07 05:38:10;;;;;;;26.35;13.30;;;;;;;0.17;100.00;100337.92;1704245;82;20990;-78
2022/02/07 05:40:47;;;;;;;21.65;13.35;;;;;;;0.22;100.00;100341.14;1661046;84;38061;-78
2022/02/07 05:43:19;;;;;;;21.82;13.20;;;;;;;0.26;100.00;100345.70;1719594;81;21581;-77
2022/02/07 05:46:01;;;;;;;21.57;13.05;;;;;;;0.28;100.00;100346.03;1701948;82;21918;-79
2022/02/07 05:48:30;;;;;;;22.13;13.53;;;;;;;0.31;100.00;100346.39;1717510;82;21032;-77
2022/02/07 05:51:05;;;;;;;24.32;14.18;;;;;;;0.33;100.00;100342.02;1697618;82;21069;-80
2022/02/07 05:53:43;;;;;;;22.50;13.48;;;;;;;0.36;100.00;100349.61;1707934;82;21041;-79
2022/02/07 05:56:18;;;;;;;18.82;12.65;;;;;;;0.38;100.00;100350.39;1732268;82;21061;-77
2022/02/07 05:58:47;;;;;;;24.87;14.05;;;;;;;0.43;100.00;100346.38;1732122;82;22199;-78
2022/02/07 06:01:16;;;;;;;22.40;13.13;;;;;;;0.45;100.00;100339.02;1732185;82;21120;-77
2022/02/07 06:03:43;;;;;;;24.75;14.23;;;;;;;0.46;100.00;100341.98;1736729;82;21045;-76
2022/02/07 06:06:12;;;;;;;22.00;13.08;;;;;;;0.46;100.00;100343.26;1736277;82;21097;-79
2022/02/07 06:08:40;;;;;;;22.05;13.48;;;;;;;0.47;100.00;100349.20;1707177;82;21037;-77
2022/02/07 06:11:11;;;;;;;24.95;14.47;;;;;;;0.48;100.00;100344.93;1731863;82;21174;-77
2022/02/07 06:13:40;;;;;;;22.13;13.65;;;;;;;0.49;100.00;100344.87;1733044;82;21085;-79
2022/02/07 06:16:15;;;;;;;21.40;12.25;;;;;;;0.50;100.00;100341.41;1703785;82;21064;-78
2022/02/07 06:18:40;;;;;;;22.40;12.90;;;;;;;0.52;100.00;100340.89;1732443;82;21072;-77
2022/02/07 06:21:08;;;;;;;21.80;12.60;;;;;;;0.55;100.00;100336.12;1736805;82;21045;-77
2022/02/07 06:23:38;;;;;;;22.20;12.50;;;;;;;0.54;100.00;100333.98;1704100;82;21900;-77
2022/02/07 06:26:07;;;;;;;21.30;12.88;;;;;;;0.54;100.00;100333.16;1703771;82;21029;-77
2022/02/07 06:28:34;;;;;;;22.65;12.40;;;;;;;0.56;100.00;100334.77;1684338;82;21053;-77
2022/02/07 06:31:02;;;;;;;21.40;12.30;;;;;;;0.58;100.00;100334.27;1732702;82;21570;-77
2022/02/07 06:33:29;;;;;;;18.82;12.20;;;;;;;0.61;100.00;100344.84;1736790;82;21009;-77
2022/02/07 06:35:58;;;;;;;19.50;12.23;;;;;;;0.64;100.00;100330.65;1737133;82;21153;-78
2022/02/07 06:38:27;;;;;;;20.23;11.85;;;;;;;0.67;100.00;100334.36;1732878;82;21038;-76
2022/02/07 06:40:55;;;;;;;16.82;10.53;;;;;;;0.71;100.00;100335.07;1737052;82;21116;-77
2022/02/07 06:43:22;;;;;;;17.85;10.78;;;;;;;0.75;100.00;100334.08;1736498;82;21041;-77
2022/02/07 06:45:50;;;;;;;18.62;10.03;;;;;;;0.79;100.00;100324.08;1737575;82;21057;-77
2022/02/07 06:48:17;;;;;;;14.90;9.98;;;;;;;0.83;100.00;100319.23;1714115;82;21561;-78
2022/02/07 06:50:45;;;;;;;15.65;10.08;;;;;;;0.87;100.00;100315.64;1709524;82;21121;-77
2022/02/07 06:53:12;;;;;;;15.48;9.75;;;;;;;0.91;100.00;100312.08;1688371;83;21335;-76
2022/02/07 06:55:40;;;;;;;13.28;8.93;;;;;;;0.95;100.00;100307.66;1679114;82;21073;-77
2022/02/07 06:58:09;;;;;;;13.38;8.90;;;;;;;0.98;100.00;100307.52;1736893;81;21057;-77
2022/02/07 07:00:41;;;;;;;16.02;9.20;;;;;;;1.03;100.00;100308.61;1720823;81;21185;-78
2022/02/07 07:03:15;;;;;;;13.28;9.35;;;;;;;1.06;100.00;100304.19;1721979;82;21378;-78
2022/02/07 07:05:40;;;;;;;14.43;9.28;;;;;;;1.12;100.00;100303.11;1716745;81;21065;-78
2022/02/07 07:08:07;;;;;;;14.70;9.18;;;;;;;1.16;100.00;100303.83;1700426;82;21073;-77
2022/02/07 07:10:34;;;;;;;13.28;9.15;;;;;;;1.18;100.00;100299.02;1713281;82;21050;-78
2022/02/07 07:13:11;;;;;;;13.93;8.90;;;;;;;1.21;100.00;100299.33;1720398;82;21157;-78
2022/02/07 07:15:41;;;;;;;12.70;8.73;;;;;;;1.26;100.00;100293.12;1720132;82;21070;-77
2022/02/07 07:18:08;;;;;;;14.13;9.78;;;;;;;1.30;100.00;100291.25;1689071;82;21503;-77
2022/02/07 07:20:36;;;;;;;11.88;8.73;;;;;;;1.35;100.00;100287.22;1733882;81;21136;-77
2022/02/07 07:23:04;;;;;;;13.55;8.98;;;;;;;1.38;100.00;100279.41;1714361;82;21037;-76
2022/02/07 07:25:36;;;;;;;13.40;8.80;;;;;;;1.40;100.00;100278.44;1732653;82;21165;-77
2022/02/07 07:28:07;;;;;;;16.05;9.23;;;;;;;1.46;100.00;100280.34;1677534;82;21057;-77
2022/02/07 07:30:43;;;;;;;14.13;8.80;;;;;;;1.46;100.00;100276.06;1714647;81;21072;-77
2022/02/07 07:33:15;;;;;;;16.55;9.13;;;;;;;1.48;100.00;100282.41;1710787;82;21077;-79
2022/02/07 07:35:36;;;;;;;15.85;8.88;;;;;;;1.45;100.00;100282.52;1708543;82;21132;-77
2022/02/07 07:38:05;;;;;;;12.65;8.38;;;;;;;1.47;100.00;100282.02;1725701;82;21095;-77
2022/02/07 07:40:32;;;;;;;13.22;9.33;;;;;;;1.48;100.00;100285.83;1699515;82;21026;-78
2022/02/07 07:43:01;;;;;;;14.90;9.05;;;;;;;1.50;100.00;100280.16;1733108;81;21683;-78
2022/02/07 07:45:58;;;;;;;14.53;9.08;;;;;;;1.51;100.00;100279.26;1709493;81;21039;-77
2022/02/07 07:48:23;;;;;;;15.83;9.23;;;;;;;1.53;100.00;100270.20;1720964;81;26623;-77
2022/02/07 07:50:59;;;;;;;15.15;9.00;;;;;;;1.53;100.00;100271.48;1725671;81;21125;-78
2022/02/07 08:02:08;;;;;;;13.10;8.68;;;;;;;1.52;100.00;100261.68;1746858;80;21504;-79
2022/02/07 08:04:33;;;;;;;17.12;10.00;;;;;;;1.52;100.00;100255.73;1773595;80;21117;-77
2022/02/07 08:12:04;;;;;;;16.30;9.48;;;;;;;1.49;100.00;100254.10;1712847;81;21001;-77
2022/02/07 08:14:35;;;;;;;12.95;9.03;;;;;;;1.50;100.00;100255.77;1706443;81;21519;-77
2022/02/07 08:17:05;;;;;;;13.62;8.90;;;;;;;1.49;100.00;100259.23;1721942;82;22387;-78
2022/02/07 08:19:38;;;;;;;12.63;8.93;;;;;;;1.48;100.00;100260.16;1731699;79;21257;-77
2022/02/07 08:22:10;;;;;;;15.03;9.43;;;;;;;1.46;100.00;100256.82;1777526;80;25734;-78
2022/02/07 08:24:38;;;;;;;16.55;9.05;;;;;;;1.43;100.00;100259.97;1746762;80;21547;-79
2022/02/07 08:27:06;;;;;;;15.65;9.78;;;;;;;1.43;100.00;100252.27;1737741;81;21052;-78
2022/02/07 08:29:35;;;;;;;19.35;9.95;;;;;;;1.43;100.00;100247.95;1749665;81;21121;-77
2022/02/07 08:32:03;;;;;;;17.67;10.23;;;;;;;1.44;100.00;100235.52;1742032;82;21602;-78
2022/02/07 08:34:33;;;;;;;17.17;10.32;;;;;;;1.43;100.00;100232.56;1715525;82;21296;-79
2022/02/07 08:37:02;;;;;;;17.85;10.28;;;;;;;1.43;100.00;100237.70;1736367;81;21041;-78
2022/02/07 08:39:35;;;;;;;15.28;10.13;;;;;;;1.43;100.00;100231.28;1753972;81;21499;-79
2022/02/07 08:42:04;;;;;;;17.05;9.85;;;;;;;1.46;100.00;100230.30;1743830;81;21683;-79
2022/02/07 08:44:37;;;;;;;14.63;9.40;;;;;;;1.44;100.00;100230.38;1754221;81;21021;-79
2022/02/07 08:47:06;;;;;;;21.02;9.63;;;;;;;1.44;100.00;100228.28;1741754;81;21584;-78
2022/02/07 08:49:35;;;;;;;11.68;8.43;;;;;;;1.46;100.00;100232.44;1730905;81;21096;-79
2022/02/07 08:52:05;;;;;;;14.03;8.68;;;;;;;1.48;100.00;100231.08;1769022;80;20993;-80
2022/02/07 08:54:34;;;;;;;13.58;8.43;;;;;;;1.47;100.00;100227.70;1769841;79;21128;-78
2022/02/07 08:57:26;;;;;;;15.78;8.73;;;;;;;1.49;100.00;100232.29;1740639;81;21056;-78
2022/02/07 08:59:57;;;;;;;13.15;9.10;;;;;;;1.52;100.00;100235.20;1722744;80;21092;-80
2022/02/07 09:02:25;;;;;;;12.28;8.30;;;;;;;1.53;100.00;100238.12;1739309;80;21168;-78
2022/02/07 09:04:55;;;;;;;10.85;7.80;;;;;;;1.55;100.00;100237.18;1733434;81;21038;-78
2022/02/07 09:07:23;;;;;;;11.60;8.23;;;;;;;1.59;100.00;100235.31;1741058;81;21167;-78
2022/02/07 09:09:45;;;;;;;14.35;8.90;;;;;;;1.62;100.00;100235.62;1741702;81;21037;-78
2022/02/07 09:12:13;;;;;;;11.48;7.95;;;;;;;1.62;100.00;100236.44;1757085;81;21033;-79
2022/02/07 09:14:55;;;;;;;19.00;8.55;;;;;;;1.65;100.00;100231.62;1741997;81;21093;-78
2022/02/07 09:17:14;;;;;;;13.13;8.10;;;;;;;1.69;100.00;100230.13;1753047;81;22010;-77
2022/02/07 09:19:41;;;;;;;12.43;7.90;;;;;;;1.76;100.00;100226.86;1753621;81;21809;-80
2022/02/07 09:22:15;;;;;;;15.32;9.00;;;;;;;1.82;100.00;100225.75;1733450;81;21092;-79
2022/02/07 09:24:42;;;;;;;11.83;8.55;;;;;;;1.88;100.00;100221.62;1740538;81;21065;-77
2022/02/07 09:27:10;;;;;;;19.73;8.65;;;;;;;1.91;100.00;100210.37;1730670;82;21101;-77
2022/02/07 09:29:38;;;;;;;12.13;8.18;;;;;;;1.92;100.00;100215.45;1751244;81;21014;-77
2022/02/07 09:32:07;;;;;;;11.75;8.20;;;;;;;1.97;100.00;100205.80;1720318;81;22119;-79
2022/02/07 09:34:35;;;;;;;13.80;8.20;;;;;;;1.97;100.00;100202.38;1761988;81;21081;-78
2022/02/07 09:37:03;;;;;;;15.55;7.90;;;;;;;1.97;100.00;100202.38;1709051;81;21034;-77
2022/02/07 09:39:31;;;;;;;12.40;8.23;;;;;;;1.99;100.00;100206.56;1721243;81;21053;-77
2022/02/07 09:42:03;;;;;;;15.85;8.45;;;;;;;2.01;100.00;100209.05;1700681;81;21049;-77
2022/02/07 09:44:41;;;;;;;13.18;8.60;;;;;;;2.01;100.00;100195.75;1743326;81;21862;-78
2022/02/07 09:47:01;;;;;;;17.27;10.48;;;;;;;2.03;100.00;100191.84;1757551;81;21121;-77
2022/02/07 09:49:28;;;;;;;17.55;9.23;;;;;;;2.06;100.00;100196.83;1739804;82;21105;-78
2022/02/07 09:51:57;;;;;;;15.68;9.83;;;;;;;2.09;100.00;100185.13;1755097;81;21088;-78
2022/02/07 09:54:24;;;;;;;14.78;11.38;;;;;;;2.10;100.00;100185.95;1740655;82;21036;-77
2022/02/07 09:56:54;;;;;;;22.27;11.73;;;;;;;2.10;100.00;100176.53;1742842;81;21540;-77
2022/02/07 09:59:26;;;;;;;16.62;11.15;;;;;;;2.11;100.00;100180.77;1756471;81;21074;-78
2022/02/07 10:01:56;;;;;;;16.00;10.32;;;;;;;2.12;100.00;100178.58;1726239;81;21036;-78
2022/02/07 10:04:33;;;;;;;19.20;10.05;;;;;;;2.12;100.00;100172.16;1745766;81;21018;-77
2022/02/07 10:07:12;;;;;;;17.37;12.82;;;;;;;2.15;100.00;100167.33;1715468;81;21545;-77
2022/02/07 10:12:05;;;;;;;22.55;14.55;;;;;;;2.18;100.00;100162.87;1755328;81;21046;-80
2022/02/07 10:19:58;;;;;;;27.87;16.57;;;;;;;2.20;100.00;100157.65;1782789;80;21363;-79
2022/02/07 10:41:58;;;;;;;26.10;14.90;;;;;;;2.39;100.00;100127.23;1771729;80;21080;-78
2022/02/07 10:44:43;;;;;;;23.98;14.50;;;;;;;2.32;100.00;100119.80;1704479;81;21036;-77
2022/02/07 10:47:11;;;;;;;24.82;15.70;;;;;;;2.27;100.00;100112.77;1777461;80;21019;-78
2022/02/07 10:49:35;;;;;;;21.17;15.32;;;;;;;2.25;100.00;100117.14;1717868;81;25634;-78
2022/02/07 10:52:04;;;;;;;23.45;13.68;;;;;;;2.26;100.00;100119.28;1740285;81;21089;-78
2022/02/07 10:54:32;;;;;;;25.72;13.45;;;;;;;2.25;100.00;100114.58;1735097;82;21092;-78
2022/02/07 10:57:05;;;;;;;21.80;13.30;;;;;;;2.24;100.00;100103.09;1757468;81;21081;-80
2022/02/07 10:59:30;;;;;;;21.80;13.20;;;;;;;2.23;100.00;100104.00;1738506;81;21018;-78
2022/02/07 11:04:37;;;;;;;19.65;12.98;;;;;;;2.20;100.00;100093.42;1709246;82;21049;-79
2022/02/07 11:07:01;;;;;;;21.20;12.98;;;;;;;2.20;100.00;100093.42;1753034;81;21086;-77
2022/02/07 11:09:44;;;;;;;22.98;13.80;;;;;;;2.20;100.00;100093.42;1714417;81;21001;-77
2022/02/07 11:12:23;;;;;;;20.70;13.15;;;;;;;2.20;100.00;100095.53;1714129;82;21085;-77
2022/02/07 11:14:58;;;;;;;22.48;13.28;;;;;;;2.21;100.00;100096.38;1742523;82;21127;-77
2022/02/07 11:23:34;;;;;;;22.32;12.75;;;;;;;2.23;100.00;100107.85;1738434;81;21073;-77
2022/02/07 11:26:06;;;;;;;21.27;12.98;;;;;;;2.25;100.00;100106.05;1706162;82;22329;-78
2022/02/07 11:28:32;;;;;;;22.35;13.43;;;;;;;2.26;100.00;100093.58;1731914;81;21162;-77
2022/02/07 11:31:05;;;;;;;19.25;13.08;;;;;;;2.25;100.00;100088.88;1729813;81;21050;-77
2022/02/07 11:34:00;;;;;;;19.92;12.93;;;;;;;2.26;100.00;100093.58;1749527;81;21049;-77
2022/02/07 11:36:36;;;;;;;25.17;12.20;;;;;;;2.26;100.00;100089.73;1736162;81;21065;-77
2022/02/07 11:39:20;;;;;;;21.17;12.13;;;;;;;2.28;100.00;100080.22;1727260;82;21022;-78
2022/02/07 11:42:03;;;;;;;20.50;12.07;;;;;;;2.25;100.00;100076.50;1746945;81;21159;-78
2022/02/07 11:44:47;;;;;;;18.57;10.80;;;;;;;2.25;100.00;100075.22;1757063;81;21514;-77
2022/02/07 11:47:32;;;;;;;15.70;11.05;;;;;;;2.25;100.00;100073.94;1750997;81;21517;-77
2022/02/07 11:50:07;;;;;;;16.70;10.63;;;;;;;2.23;100.00;100073.17;1747847;81;22000;-77
2022/02/07 11:52:48;;;;;;;19.15;11.20;;;;;;;2.20;100.00;100080.58;1738878;81;21069;-79
2022/02/07 11:55:18;;;;;;;17.20;10.48;;;;;;;2.19;100.00;100086.62;1715376;81;21081;-77
2022/02/07 11:58:02;;;;;;;16.97;10.63;;;;;;;2.18;100.00;100084.52;1708725;82;21109;-78
2022/02/07 12:00:29;;;;;;;15.25;10.90;;;;;;;2.17;100.00;100080.72;1742335;81;21073;-77
2022/02/07 12:03:03;;;;;;;19.35;10.45;;;;;;;2.15;100.00;100079.52;1746720;81;21104;-79
2022/02/07 12:05:32;;;;;;;14.63;10.23;;;;;;;2.18;100.00;100080.66;1750763;81;21050;-79
2022/02/07 12:08:06;;;;;;;17.48;10.35;;;;;;;2.19;100.00;100075.91;1748649;81;21713;-78
2022/02/07 12:10:38;;;;;;;17.15;10.72;;;;;;;2.20;100.00;100080.11;1704510;83;21029;-79
2022/02/07 12:13:41;;;;;;;16.02;10.50;;;;;;;2.23;100.00;100083.45;1701880;83;21148;-77
2022/02/07 12:16:21;;;;;;;15.23;9.93;;;;;;;2.24;100.00;100080.83;1693389;81;21093;-78
2022/02/07 12:19:11;;;;;;;16.32;10.65;;;;;;;2.27;100.00;100076.80;1721188;80;21006;-78
2022/02/07 12:21:39;;;;;;;18.50;10.85;;;;;;;2.29;100.00;100072.86;1770791;80;21872;-77
2022/02/07 12:24:08;;;;;;;16.82;10.95;;;;;;;2.30;100.00;100080.95;1747484;80;21053;-79
2022/02/07 12:26:42;;;;;;;18.75;11.50;;;;;;;2.31;100.00;100082.19;1679259;81;21530;-79
2022/02/07 12:29:24;;;;;;;19.98;11.35;;;;;;;2.31;100.00;100078.77;1732042;82;21120;-80
2022/02/07 12:31:41;;;;;;;17.95;12.15;;;;;;;2.32;100.00;100075.30;1713240;82;21060;-78
2022/02/07 12:34:13;;;;;;;15.63;11.40;;;;;;;2.33;100.00;100076.48;1716870;81;21058;-78
2022/02/07 12:36:40;;;;;;;25.12;17.25;;;;;;;2.36;100.00;100071.68;1721348;81;21037;-77
2022/02/07 12:39:14;;;;;;;21.45;15.53;;;;;;;2.38;100.00;100077.55;1750624;81;21096;-78
2022/02/07 12:41:45;;;;;;;22.07;14.45;;;;;;;2.38;100.00;100071.59;1735979;81;21739;-78
2022/02/07 12:44:22;;;;;;;24.65;15.18;;;;;;;2.38;100.00;100063.41;1747877;80;22428;-78
2022/02/07 12:46:46;;;;;;;21.70;15.18;;;;;;;2.39;100.00;100059.95;1719471;82;21281;-79
2022/02/07 12:49:14;;;;;;;19.60;14.47;;;;;;;2.39;100.00;100053.98;1704000;81;21610;-78
2022/02/07 12:51:46;;;;;;;23.50;14.20;;;;;;;2.38;100.00;100048.00;1750780;81;21027;-78
2022/02/07 12:54:21;;;;;;;19.00;13.03;;;;;;;2.40;100.00;100052.61;1716000;82;21089;-79
2022/02/07 12:56:50;;;;;;;18.62;12.25;;;;;;;2.42;100.00;100048.23;1754133;81;21136;-78
2022/02/07 12:59:18;;;;;;;24.82;13.80;;;;;;;2.44;100.00;100047.72;1707370;81;21134;-79
2022/02/07 13:01:48;;;;;;;18.50;13.58;;;;;;;2.46;100.00;100036.06;1754195;81;21511;-79
2022/02/07 13:04:19;;;;;;;20.48;13.48;;;;;;;2.47;100.00;100033.41;1726850;81;21123;-79
2022/02/07 13:06:50;;;;;;;22.15;14.18;;;;;;;2.47;100.00;100028.73;1745836;81;21115;-79
2022/02/07 13:09:31;;;;;;;20.97;13.60;;;;;;;2.50;100.00;100022.13;1757684;81;21053;-79
2022/02/07 13:14:44;;;;;;;21.53;14.90;;;;;;;2.50;100.00;100021.70;1737688;81;21541;-77
2022/02/07 13:17:12;;;;;;;24.45;14.80;;;;;;;2.54;100.00;100021.09;1749964;81;21575;-80
2022/02/07 13:19:43;;;;;;;20.68;14.18;;;;;;;2.55;100.00;100018.05;1744691;81;21561;-77
2022/02/07 13:22:15;;;;;;;22.07;14.65;;;;;;;2.55;100.00;100015.48;1709720;82;21554;-77
2022/02/07 13:24:46;;;;;;;29.27;16.00;;;;;;;2.58;100.00;100011.47;1725885;81;21182;-78
2022/02/07 13:27:16;;;;;;;27.70;15.72;;;;;;;2.59;100.00;99997.25;1721809;82;21606;-76
2022/02/07 13:29:51;;;;;;;23.52;15.18;;;;;;;2.59;100.00;99997.25;1731832;82;21164;-77
2022/02/07 13:32:29;;;;;;;18.80;13.78;;;;;;;2.60;100.00;99997.62;1722141;81;21041;-77
2022/02/07 13:35:14;;;;;;;19.05;13.90;;;;;;;2.61;100.00;99985.16;1707533;81;21120;-78
2022/02/07 13:37:43;;;;;;;20.08;13.08;;;;;;;2.61;100.00;99985.16;1738209;81;21605;-78
2022/02/07 13:40:15;;;;;;;20.00;13.68;;;;;;;2.58;100.00;99978.87;1708179;82;21057;-78
2022/02/07 13:42:51;;;;;;;18.42;12.85;;;;;;;2.56;100.00;99982.44;1708927;81;21124;-80